createdAt,value
2023-02-14T00:00:47.740Z,6.85
2023-02-14T00:01:47.769Z,6.87
2023-02-14T00:02:47.861Z,6.88
2023-02-14T00:05:07.404Z,6.74
2023-02-14T00:06:07.281Z,6.69
2023-02-14T00:07:07.292Z,6.67
2023-02-14T00:08:07.255Z,6.74
2023-02-14T00:09:07.281Z,6.71
2023-02-14T00:10:08.249Z,6.76
2023-02-14T00:11:07.243Z,6.74
2023-02-14T00:12:07.230Z,6.76
2023-02-14T00:13:07.234Z,6.70
2023-02-14T00:14:07.235Z,6.71
2023-02-14T00:15:07.221Z,6.70
2023-02-14T00:16:07.337Z,6.74
2023-02-14T00:17:07.206Z,6.73
2023-02-14T00:19:18.629Z,6.67
2023-02-14T00:20:26.610Z,6.64
2023-02-14T00:21:18.605Z,6.64
2023-02-14T00:22:18.492Z,6.62
2023-02-14T00:23:18.527Z,6.70
2023-02-14T00:24:18.534Z,6.59
2023-02-14T00:25:42.311Z,6.66
2023-02-14T00:26:19.210Z,6.64
2023-02-14T00:27:19.240Z,6.67
2023-02-14T00:28:18.410Z,6.70
2023-02-14T00:29:18.483Z,6.67
2023-02-14T00:30:18.441Z,6.61
2023-02-14T00:31:18.582Z,6.61
2023-02-14T00:32:18.736Z,6.62
2023-02-14T00:33:19.172Z,6.49
2023-02-14T00:34:18.450Z,6.55
2023-02-14T00:35:28.969Z,6.56
2023-02-14T00:36:18.345Z,6.54
2023-02-14T00:37:18.367Z,6.56
2023-02-14T00:38:20.209Z,6.62
2023-02-14T00:39:18.342Z,6.62
2023-02-14T00:40:19.234Z,6.64
2023-02-14T00:41:18.309Z,6.56
2023-02-14T00:42:18.246Z,6.54
2023-02-14T00:43:18.329Z,6.59
2023-02-14T00:44:18.274Z,6.58
2023-02-14T00:45:18.224Z,6.61
2023-02-14T00:46:18.258Z,6.59
2023-02-14T00:47:18.215Z,6.58
2023-02-14T00:48:18.250Z,6.61
2023-02-14T00:49:18.238Z,6.62
2023-02-14T00:50:18.194Z,6.58
2023-02-14T00:51:18.181Z,6.58
2023-02-14T00:52:18.221Z,6.52
2023-02-14T00:53:18.150Z,6.54
2023-02-14T00:54:18.224Z,6.44
2023-02-14T00:56:38.870Z,6.55
2023-02-14T00:58:50.356Z,6.52
2023-02-14T01:01:13.256Z,6.52
2023-02-14T01:02:10.602Z,6.49
2023-02-14T01:03:17.564Z,6.36
2023-02-14T01:04:10.471Z,6.37
2023-02-14T01:06:47.904Z,6.33
2023-02-14T01:07:47.887Z,6.41
2023-02-14T01:08:47.839Z,6.38
2023-02-14T01:09:47.828Z,6.41
2023-02-14T01:10:47.863Z,6.44
2023-02-14T01:11:47.808Z,6.38
2023-02-14T01:12:47.782Z,6.38
2023-02-14T01:13:47.832Z,6.38
2023-02-14T01:14:47.762Z,6.33
2023-02-14T01:15:47.741Z,6.33
2023-02-14T01:16:49.563Z,6.34
2023-02-14T01:17:47.780Z,6.33
2023-02-14T01:18:47.738Z,6.30
2023-02-14T01:19:47.744Z,6.33
2023-02-14T01:20:47.738Z,6.30
2023-02-14T01:21:47.695Z,6.28
2023-02-14T01:22:47.697Z,6.30
2023-02-14T01:23:47.739Z,6.25
2023-02-14T01:24:47.796Z,6.27
2023-02-14T01:25:47.646Z,6.21
2023-02-14T01:26:47.685Z,6.21
2023-02-14T01:27:47.690Z,6.18
2023-02-14T01:28:47.638Z,6.19
2023-02-14T01:29:47.663Z,6.19
2023-02-14T01:30:47.620Z,6.19
2023-02-14T01:31:47.734Z,6.18
2023-02-14T01:32:47.607Z,6.06
2023-02-14T01:33:47.584Z,6.27
2023-02-14T01:34:47.613Z,6.21
2023-02-14T01:35:47.565Z,6.30
2023-02-14T01:36:47.614Z,6.21
2023-02-14T01:37:48.490Z,6.21
2023-02-14T01:38:47.573Z,6.17
2023-02-14T01:39:47.552Z,6.25
2023-02-14T01:40:47.513Z,6.27
2023-02-14T01:41:47.493Z,6.14
2023-02-14T01:42:47.483Z,6.17
2023-02-14T01:43:47.570Z,6.11
2023-02-14T01:44:47.494Z,6.18
2023-02-14T01:45:47.466Z,6.12
2023-02-14T01:46:47.423Z,6.08
2023-02-14T01:47:47.437Z,6.04
2023-02-14T01:48:47.440Z,6.06
2023-02-14T01:49:47.455Z,6.04
2023-02-14T01:50:47.430Z,6.04
2023-02-14T01:51:47.427Z,5.99
2023-02-14T01:52:47.403Z,5.97
2023-02-14T01:53:47.361Z,6.03
2023-02-14T01:54:47.403Z,6.00
2023-02-14T01:55:47.399Z,5.93
2023-02-14T01:56:47.368Z,6.00
2023-02-14T01:57:47.490Z,5.90
2023-02-14T01:58:47.369Z,5.94
2023-02-14T01:59:47.317Z,5.97
2023-02-14T02:00:47.357Z,5.93
2023-02-14T02:01:47.344Z,5.89
2023-02-14T02:02:47.264Z,5.93
2023-02-14T02:03:47.247Z,5.89
2023-02-14T02:04:56.308Z,5.93
2023-02-14T02:05:47.254Z,5.86
2023-02-14T02:06:47.243Z,5.85
2023-02-14T02:07:47.240Z,5.94
2023-02-14T02:08:47.205Z,5.86
2023-02-14T02:09:47.204Z,5.96
2023-02-14T02:10:47.250Z,5.91
2023-02-14T02:11:47.169Z,5.93
2023-02-14T02:12:47.178Z,5.93
2023-02-14T02:13:47.177Z,5.91
2023-02-14T02:14:47.154Z,5.86
2023-02-14T02:15:47.112Z,5.83
2023-02-14T02:16:48.181Z,5.85
2023-02-14T02:17:47.092Z,5.74
2023-02-14T02:18:47.134Z,5.76
2023-02-14T02:19:47.082Z,5.83
2023-02-14T02:20:47.096Z,5.90
2023-02-14T02:21:47.044Z,5.82
2023-02-14T02:22:57.221Z,5.91
2023-02-14T02:23:56.616Z,5.83
2023-02-14T02:24:47.073Z,5.78
2023-02-14T02:25:47.002Z,5.81
2023-02-14T02:26:46.991Z,5.82
2023-02-14T02:27:46.969Z,5.82
2023-02-14T02:28:46.989Z,5.86
2023-02-14T02:29:47.069Z,5.99
2023-02-14T02:30:47.103Z,5.83
2023-02-14T02:31:47.236Z,5.86
2023-02-14T02:32:46.962Z,5.97
2023-02-14T02:33:46.944Z,5.90
2023-02-14T02:34:46.919Z,5.94
2023-02-14T02:35:47.007Z,5.89
2023-02-14T02:36:46.891Z,5.97
2023-02-14T02:37:46.887Z,5.78
2023-02-14T02:38:46.883Z,5.82
2023-02-14T02:39:46.922Z,5.83
2023-02-14T02:40:46.950Z,5.85
2023-02-14T02:41:46.898Z,5.85
2023-02-14T02:42:46.833Z,5.85
2023-02-14T02:43:46.859Z,5.82
2023-02-14T02:44:46.874Z,5.83
2023-02-14T02:45:47.547Z,5.85
2023-02-14T02:46:46.849Z,5.86
2023-02-14T02:47:46.921Z,5.71
2023-02-14T02:48:46.778Z,5.71
2023-02-14T02:49:49.673Z,5.72
2023-02-14T02:50:46.923Z,5.68
2023-02-14T02:51:46.761Z,5.71
2023-02-14T02:52:46.727Z,5.75
2023-02-14T02:53:46.703Z,5.71
2023-02-14T02:54:46.832Z,5.64
2023-02-14T02:55:46.774Z,5.68
2023-02-14T02:56:46.726Z,5.67
2023-02-14T02:57:46.778Z,5.67
2023-02-14T02:58:46.664Z,5.64
2023-02-14T02:59:46.845Z,5.75
2023-02-14T03:00:46.931Z,5.75
2023-02-14T03:01:46.864Z,5.72
2023-02-14T03:02:46.740Z,5.71
2023-02-14T03:03:46.679Z,5.61
2023-02-14T03:04:46.637Z,5.64
2023-02-14T03:05:46.567Z,5.64
2023-02-14T03:06:46.608Z,5.67
2023-02-14T03:07:46.711Z,5.64
2023-02-14T03:08:46.550Z,5.64
2023-02-14T03:09:46.587Z,5.67
2023-02-14T03:10:46.618Z,5.61
2023-02-14T03:11:46.575Z,5.61
2023-02-14T03:12:46.498Z,5.61
2023-02-14T03:13:46.527Z,5.57
2023-02-14T03:14:46.565Z,5.54
2023-02-14T03:15:46.502Z,5.61
2023-02-14T03:16:46.560Z,5.54
2023-02-14T03:17:47.544Z,5.60
2023-02-14T03:18:46.485Z,5.57
2023-02-14T03:19:46.450Z,5.61
2023-02-14T03:20:46.558Z,5.61
2023-02-14T03:21:46.516Z,5.54
2023-02-14T03:22:46.485Z,5.48
2023-02-14T03:23:46.436Z,5.43
2023-02-14T03:24:46.395Z,5.40
2023-02-14T03:25:46.369Z,5.46
2023-02-14T03:26:46.432Z,5.54
2023-02-14T03:27:46.352Z,5.49
2023-02-14T03:28:46.476Z,5.40
2023-02-14T03:29:46.325Z,5.48
2023-02-14T03:30:46.439Z,5.45
2023-02-14T03:31:46.453Z,5.46
2023-02-14T03:32:46.304Z,5.49
2023-02-14T03:33:46.337Z,5.48
2023-02-14T03:34:46.299Z,5.48
2023-02-14T03:35:46.241Z,5.51
2023-02-14T03:36:46.278Z,5.57
2023-02-14T03:37:46.247Z,5.53
2023-02-14T03:38:46.260Z,5.51
2023-02-14T03:39:46.200Z,5.53
2023-02-14T03:40:46.292Z,5.57
2023-02-14T03:41:46.351Z,5.49
2023-02-14T03:42:46.185Z,5.39
2023-02-14T03:43:46.402Z,5.49
2023-02-14T03:44:46.200Z,5.42
2023-02-14T03:45:46.176Z,5.38
2023-02-14T03:46:46.225Z,5.46
2023-02-14T03:47:46.229Z,5.43
2023-02-14T03:48:46.229Z,5.39
2023-02-14T03:49:46.173Z,5.39
2023-02-14T03:50:46.188Z,5.40
2023-02-14T03:51:47.065Z,5.33
2023-02-14T03:52:46.073Z,5.28
2023-02-14T03:53:46.194Z,5.33
2023-02-14T03:54:46.080Z,5.25
2023-02-14T03:55:46.035Z,5.33
2023-02-14T03:56:46.076Z,5.30
2023-02-14T03:57:46.158Z,5.31
2023-02-14T03:58:46.111Z,5.22
2023-02-14T03:59:46.049Z,5.22
2023-02-14T04:00:46.154Z,5.28
2023-02-14T04:01:46.006Z,5.25
2023-02-14T04:02:46.018Z,5.24
2023-02-14T04:03:46.064Z,5.25
2023-02-14T04:04:45.936Z,5.30
2023-02-14T04:05:46.010Z,5.24
2023-02-14T04:06:46.015Z,5.27
2023-02-14T04:07:45.986Z,5.24
2023-02-14T04:08:46.126Z,5.27
2023-02-14T04:09:45.925Z,5.30
2023-02-14T04:10:45.964Z,5.28
2023-02-14T04:11:45.873Z,5.30
2023-02-14T04:12:45.874Z,5.22
2023-02-14T04:13:45.882Z,5.28
2023-02-14T04:14:45.855Z,5.24
2023-02-14T04:15:46.075Z,5.30
2023-02-14T04:16:45.829Z,5.31
2023-02-14T04:17:45.822Z,5.24
2023-02-14T04:18:45.952Z,5.17
2023-02-14T04:19:45.811Z,5.25
2023-02-14T04:20:54.403Z,5.27
2023-02-14T04:21:45.750Z,5.24
2023-02-14T04:22:45.771Z,5.20
2023-02-14T04:23:45.730Z,5.21
2023-02-14T04:24:45.730Z,5.12
2023-02-14T04:25:45.740Z,5.24
2023-02-14T04:26:45.678Z,5.18
2023-02-14T04:27:45.718Z,5.13
2023-02-14T04:28:46.544Z,5.13
2023-02-14T04:29:45.660Z,5.18
2023-02-14T04:30:45.662Z,5.15
2023-02-14T04:31:45.800Z,5.07
2023-02-14T04:32:45.711Z,4.99
2023-02-14T04:33:45.749Z,5.00
2023-02-14T04:34:45.661Z,5.02
2023-02-14T04:35:45.680Z,4.99
2023-02-14T04:36:45.643Z,5.03
2023-02-14T04:37:45.662Z,4.96
2023-02-14T04:38:45.668Z,5.00
2023-02-14T04:39:45.672Z,4.89
2023-02-14T04:40:45.609Z,4.82
2023-02-14T04:41:45.578Z,4.78
2023-02-14T04:42:45.611Z,4.75
2023-02-14T04:43:45.533Z,4.88
2023-02-14T04:44:45.497Z,4.86
2023-02-14T04:45:45.484Z,4.84
2023-02-14T04:46:45.581Z,4.85
2023-02-14T04:47:45.463Z,4.84
2023-02-14T04:48:45.460Z,4.86
2023-02-14T04:49:45.489Z,4.72
2023-02-14T04:50:45.437Z,4.80
2023-02-14T04:51:45.471Z,4.77
2023-02-14T04:52:45.448Z,4.72
2023-02-14T04:53:45.486Z,4.73
2023-02-14T04:54:45.385Z,4.82
2023-02-14T04:55:45.488Z,4.77
2023-02-14T04:56:45.456Z,4.77
2023-02-14T04:57:45.493Z,4.77
2023-02-14T04:58:45.380Z,4.77
2023-02-14T04:59:45.540Z,4.78
2023-02-14T05:00:45.402Z,4.78
2023-02-14T05:01:45.456Z,4.80
2023-02-14T05:02:45.410Z,4.75
2023-02-14T05:03:45.356Z,4.72
2023-02-14T05:04:45.379Z,4.66
2023-02-14T05:05:45.268Z,4.77
2023-02-14T05:06:45.452Z,4.72
2023-02-14T05:07:45.388Z,4.72
2023-02-14T05:08:45.300Z,4.70
2023-02-14T05:09:45.280Z,4.75
2023-02-14T05:10:45.280Z,4.67
2023-02-14T05:11:45.268Z,4.62
2023-02-14T05:12:45.301Z,4.66
2023-02-14T05:13:45.226Z,4.55
2023-02-14T05:14:45.244Z,4.52
2023-02-14T05:15:45.200Z,4.52
2023-02-14T05:16:45.359Z,4.54
2023-02-14T05:17:45.147Z,4.60
2023-02-14T05:18:45.149Z,4.58
2023-02-14T05:19:45.376Z,4.59
2023-02-14T05:20:45.137Z,4.58
2023-02-14T05:21:45.151Z,4.52
2023-02-14T05:22:45.156Z,4.58
2023-02-14T05:23:45.157Z,4.58
2023-02-14T05:24:45.051Z,4.55
2023-02-14T05:25:45.063Z,4.54
2023-02-14T05:26:45.068Z,4.58
2023-02-14T05:27:45.280Z,4.52
2023-02-14T05:28:45.177Z,4.54
2023-02-14T05:29:45.043Z,4.51
2023-02-14T05:30:45.277Z,4.52
2023-02-14T05:31:45.034Z,4.50
2023-02-14T05:32:45.166Z,4.59
2023-02-14T05:33:45.124Z,4.58
2023-02-14T05:34:44.989Z,4.62
2023-02-14T05:35:45.212Z,4.51
2023-02-14T05:36:44.953Z,4.51
2023-02-14T05:37:45.029Z,4.50
2023-02-14T05:38:44.909Z,4.50
2023-02-14T05:39:44.914Z,4.54
2023-02-14T05:40:44.945Z,4.48
2023-02-14T05:41:44.994Z,4.48
2023-02-14T05:42:44.920Z,4.50
2023-02-14T05:43:44.948Z,4.58
2023-02-14T05:44:45.116Z,4.52
2023-02-14T05:45:44.969Z,4.50
2023-02-14T05:46:44.840Z,4.42
2023-02-14T05:47:44.796Z,4.44
2023-02-14T05:48:44.792Z,4.45
2023-02-14T05:49:44.793Z,4.44
2023-02-14T05:50:44.868Z,4.40
2023-02-14T05:51:44.787Z,4.37
2023-02-14T05:52:44.794Z,4.27
2023-02-14T05:53:44.784Z,4.36
2023-02-14T05:54:44.728Z,4.29
2023-02-14T05:55:44.766Z,4.26
2023-02-14T05:56:44.796Z,4.30
2023-02-14T05:57:44.731Z,4.32
2023-02-14T05:58:44.740Z,4.34
2023-02-14T05:59:44.771Z,4.45
2023-02-14T06:00:44.972Z,4.42
2023-02-14T06:01:44.914Z,4.41
2023-02-14T06:02:44.845Z,4.30
2023-02-14T06:03:44.889Z,4.37
2023-02-14T06:04:44.787Z,4.27
2023-02-14T06:05:44.710Z,4.33
2023-02-14T06:06:44.736Z,4.41
2023-02-14T06:07:44.823Z,4.30
2023-02-14T06:08:44.816Z,4.34
2023-02-14T06:09:44.777Z,4.36
2023-02-14T06:10:44.809Z,4.30
2023-02-14T06:11:44.838Z,4.27
2023-02-14T06:12:44.704Z,4.37
2023-02-14T06:13:44.685Z,4.32
2023-02-14T06:14:44.701Z,4.29
2023-02-14T06:15:44.623Z,4.37
2023-02-14T06:16:44.717Z,4.24
2023-02-14T06:17:44.640Z,4.30
2023-02-14T06:18:44.614Z,4.32
2023-02-14T06:19:44.591Z,4.42
2023-02-14T06:20:44.576Z,4.41
2023-02-14T06:21:44.462Z,4.30
2023-02-14T06:22:44.660Z,4.30
2023-02-14T06:23:44.506Z,4.33
2023-02-14T06:24:44.509Z,4.27
2023-02-14T06:25:45.180Z,4.30
2023-02-14T06:26:44.529Z,4.29
2023-02-14T06:27:44.530Z,4.29
2023-02-14T06:28:44.627Z,4.27
2023-02-14T06:29:44.621Z,4.30
2023-02-14T06:30:44.637Z,4.41
2023-02-14T06:31:44.744Z,4.44
2023-02-14T06:32:45.362Z,4.27
2023-02-14T06:33:44.623Z,4.36
2023-02-14T06:34:45.145Z,4.45
2023-02-14T06:35:44.528Z,4.32
2023-02-14T06:36:44.716Z,4.41
2023-02-14T06:37:44.406Z,4.40
2023-02-14T06:38:44.460Z,4.44
2023-02-14T06:39:44.575Z,4.41
2023-02-14T06:40:44.587Z,4.48
2023-02-14T06:41:44.373Z,4.41
2023-02-14T06:42:44.428Z,4.42
2023-02-14T06:43:44.356Z,4.41
2023-02-14T06:44:44.508Z,4.44
2023-02-14T06:45:44.426Z,4.41
2023-02-14T06:46:44.578Z,4.44
2023-02-14T06:47:44.242Z,4.40
2023-02-14T06:48:44.517Z,4.26
2023-02-14T06:49:44.149Z,4.41
2023-02-14T06:50:44.170Z,4.40
2023-02-14T06:51:44.168Z,4.37
2023-02-14T06:52:44.147Z,4.40
2023-02-14T06:53:44.266Z,4.30
2023-02-14T06:54:44.213Z,4.44
2023-02-14T06:55:45.171Z,4.40
2023-02-14T06:56:44.121Z,4.30
2023-02-14T06:57:44.146Z,4.50
2023-02-14T06:58:44.165Z,4.36
2023-02-14T06:59:44.039Z,4.44
2023-02-14T07:00:44.128Z,4.41
2023-02-14T07:01:44.200Z,4.45
2023-02-14T07:02:44.085Z,4.37
2023-02-14T07:03:44.165Z,4.37
2023-02-14T07:04:44.080Z,4.42
2023-02-14T07:05:44.038Z,4.48
2023-02-14T07:06:44.196Z,4.41
2023-02-14T07:07:44.010Z,4.40
2023-02-14T07:08:43.965Z,4.36
2023-02-14T07:09:44.018Z,4.37
2023-02-14T07:10:44.002Z,4.48
2023-02-14T07:11:43.991Z,4.41
2023-02-14T07:12:43.949Z,4.51
2023-02-14T07:13:43.965Z,4.42
2023-02-14T07:14:43.938Z,4.51
2023-02-14T07:15:43.902Z,4.41
2023-02-14T07:16:43.930Z,4.50
2023-02-14T07:17:43.943Z,4.50
2023-02-14T07:18:43.864Z,4.54
2023-02-14T07:19:43.936Z,4.51
2023-02-14T07:20:43.882Z,4.51
2023-02-14T07:21:43.831Z,4.54
2023-02-14T07:22:43.879Z,4.52
2023-02-14T07:23:43.904Z,4.52
2023-02-14T07:24:43.835Z,4.58
2023-02-14T07:25:43.793Z,4.58
2023-02-14T07:26:43.849Z,4.58
2023-02-14T07:27:44.063Z,4.58
2023-02-14T07:28:45.141Z,4.58
2023-02-14T07:29:43.750Z,4.51
2023-02-14T07:30:43.781Z,4.52
2023-02-14T07:31:43.880Z,4.58
2023-02-14T07:32:43.677Z,4.55
2023-02-14T07:33:43.770Z,4.58
2023-02-14T07:34:43.681Z,4.58
2023-02-14T07:35:43.732Z,4.63
2023-02-14T07:36:43.725Z,4.66
2023-02-14T07:37:43.705Z,4.52
2023-02-14T07:38:43.674Z,4.65
2023-02-14T07:39:43.741Z,4.62
2023-02-14T07:40:44.096Z,4.59
2023-02-14T07:41:43.903Z,4.66
2023-02-14T07:42:43.576Z,4.66
2023-02-14T07:43:43.763Z,4.72
2023-02-14T07:44:43.647Z,4.72
2023-02-14T07:45:43.584Z,4.69
2023-02-14T07:46:43.686Z,4.72
2023-02-14T07:47:43.636Z,4.72
2023-02-14T07:48:43.550Z,4.77
2023-02-14T07:49:43.712Z,4.78
2023-02-14T07:50:43.705Z,4.89
2023-02-14T07:51:43.766Z,4.89
2023-02-14T07:52:43.606Z,4.94
2023-02-14T07:53:43.889Z,4.96
2023-02-14T07:54:43.568Z,4.97
2023-02-14T07:55:43.508Z,5.06
2023-02-14T07:56:43.577Z,5.18
2023-02-14T07:57:43.586Z,5.25
2023-02-14T07:58:43.535Z,5.40
2023-02-14T07:59:43.387Z,5.36
2023-02-14T08:00:43.515Z,5.28
2023-02-14T08:01:43.503Z,5.35
2023-02-14T08:02:43.408Z,5.33
2023-02-14T08:03:43.440Z,5.45
2023-02-14T08:04:43.488Z,5.45
2023-02-14T08:05:43.352Z,5.64
2023-02-14T08:06:43.411Z,5.65
2023-02-14T08:07:43.428Z,5.72
2023-02-14T08:08:43.361Z,5.82
2023-02-14T08:09:43.332Z,5.68
2023-02-14T08:10:43.282Z,5.89
2023-02-14T08:11:43.272Z,5.96
2023-02-14T08:12:43.341Z,6.04
2023-02-14T08:13:43.292Z,6.15
2023-02-14T08:14:43.345Z,6.08
2023-02-14T08:15:43.250Z,6.25
2023-02-14T08:16:43.288Z,6.40
2023-02-14T08:17:43.188Z,6.51
2023-02-14T08:18:43.287Z,6.46
2023-02-14T08:19:43.417Z,6.64
2023-02-14T08:20:43.258Z,6.67
2023-02-14T08:21:43.141Z,6.87
2023-02-14T08:22:43.224Z,6.89
2023-02-14T08:23:43.131Z,6.89
2023-02-14T08:24:43.185Z,6.95
2023-02-14T08:25:43.194Z,7.03
2023-02-14T08:26:43.069Z,7.06
2023-02-14T08:27:43.142Z,7.16
2023-02-14T08:28:43.102Z,7.28
2023-02-14T08:29:43.066Z,7.27
2023-02-14T08:30:43.062Z,7.34
2023-02-14T08:31:43.099Z,7.45
2023-02-14T08:32:43.070Z,7.31
2023-02-14T08:33:43.070Z,7.16
2023-02-14T08:34:43.039Z,7.03
2023-02-14T08:35:43.033Z,6.94
2023-02-14T08:36:43.022Z,7.10
2023-02-14T08:37:42.982Z,7.13
2023-02-14T08:38:42.948Z,6.95
2023-02-14T08:39:43.071Z,6.80
2023-02-14T08:40:42.947Z,6.71
2023-02-14T08:41:42.933Z,6.64
2023-02-14T08:42:42.938Z,6.67
2023-02-14T08:43:42.919Z,6.77
2023-02-14T08:44:42.902Z,6.94
2023-02-14T08:45:42.909Z,7.15
2023-02-14T08:46:43.036Z,7.21
2023-02-14T08:47:42.935Z,7.25
2023-02-14T08:48:42.909Z,7.35
2023-02-14T08:49:42.906Z,7.49
2023-02-14T08:50:42.838Z,7.61
2023-02-14T08:51:42.808Z,7.72
2023-02-14T08:52:42.842Z,7.68
2023-02-14T08:53:42.850Z,7.35
2023-02-14T08:54:42.778Z,7.34
2023-02-14T08:55:42.779Z,7.49
2023-02-14T08:56:42.774Z,7.55
2023-02-14T08:57:42.752Z,7.68
2023-02-14T08:58:42.806Z,7.86
2023-02-14T08:59:42.782Z,7.83
2023-02-14T09:00:42.782Z,8.07
2023-02-14T09:01:42.776Z,8.16
2023-02-14T09:02:42.718Z,8.12
2023-02-14T09:03:42.839Z,8.04
2023-02-14T09:04:42.676Z,7.90
2023-02-14T09:05:42.680Z,7.89
2023-02-14T09:06:42.683Z,7.86
2023-02-14T09:07:42.743Z,7.97
2023-02-14T09:08:42.653Z,7.79
2023-02-14T09:09:42.634Z,7.69
2023-02-14T09:10:42.603Z,7.89
2023-02-14T09:11:42.603Z,7.87
2023-02-14T09:12:42.606Z,8.02
2023-02-14T09:13:42.569Z,7.97
2023-02-14T09:14:42.572Z,8.23
2023-02-14T09:15:42.550Z,8.45
2023-02-14T09:16:42.603Z,8.74
2023-02-14T09:17:42.579Z,8.58
2023-02-14T09:18:42.592Z,8.44
2023-02-14T09:19:42.522Z,8.41
2023-02-14T09:20:42.555Z,8.52
2023-02-14T09:21:42.503Z,8.26
2023-02-14T09:22:42.591Z,8.10
2023-02-14T09:23:42.488Z,7.97
2023-02-14T09:24:42.465Z,8.12
2023-02-14T09:25:42.512Z,8.30
2023-02-14T09:26:42.448Z,8.56
2023-02-14T09:27:42.479Z,8.71
2023-02-14T09:28:42.425Z,8.96
2023-02-14T09:29:42.488Z,9.10
2023-02-14T09:30:42.452Z,9.24
2023-02-14T09:31:42.488Z,9.33
2023-02-14T09:32:42.451Z,9.10
2023-02-14T09:33:42.367Z,8.84
2023-02-14T09:34:42.367Z,8.71
2023-02-14T09:35:42.367Z,8.44
2023-02-14T09:36:42.329Z,8.40
2023-02-14T09:37:42.290Z,8.48
2023-02-14T09:38:42.308Z,8.50
2023-02-14T09:39:42.285Z,8.48
2023-02-14T09:40:42.286Z,8.62
2023-02-14T09:41:42.276Z,8.70
2023-02-14T09:42:42.245Z,8.63
2023-02-14T09:43:42.273Z,8.77
2023-02-14T09:44:43.017Z,8.92
2023-02-14T09:45:42.373Z,9.20
2023-02-14T09:46:42.207Z,9.20
2023-02-14T09:47:42.268Z,8.89
2023-02-14T09:48:42.189Z,8.92
2023-02-14T09:49:42.363Z,9.10
2023-02-14T09:51:53.555Z,9.24
2023-02-14T09:52:53.535Z,9.26
2023-02-14T09:53:53.484Z,9.18
2023-02-14T09:54:53.496Z,9.28
2023-02-14T09:55:53.694Z,9.05
2023-02-14T09:56:53.459Z,8.91
2023-02-14T09:57:53.473Z,8.74
2023-02-14T09:58:53.454Z,8.95
2023-02-14T09:59:53.412Z,9.02
2023-02-14T10:00:53.447Z,8.95
2023-02-14T10:01:53.409Z,8.84
2023-02-14T10:02:53.387Z,8.94
2023-02-14T10:03:53.393Z,9.18
2023-02-14T10:04:53.408Z,9.04
2023-02-14T10:06:16.476Z,9.21
2023-02-14T10:06:53.357Z,9.05
2023-02-14T10:07:53.338Z,9.01
2023-02-14T10:08:53.335Z,9.13
2023-02-14T10:09:53.324Z,9.08
2023-02-14T10:10:53.335Z,9.23
2023-02-14T10:11:53.312Z,9.40
2023-02-14T10:12:53.301Z,9.47
2023-02-14T10:13:54.209Z,9.57
2023-02-14T10:14:54.346Z,9.54
2023-02-14T10:15:53.251Z,9.42
2023-02-14T10:16:53.753Z,9.40
2023-02-14T10:18:01.864Z,9.38
2023-02-14T10:18:53.225Z,9.35
2023-02-14T10:21:15.178Z,9.26
2023-02-14T10:23:46.768Z,9.54
2023-02-14T10:24:47.211Z,9.75
2023-02-14T10:25:46.722Z,9.93
2023-02-14T10:26:45.649Z,10.07
2023-02-14T10:27:45.683Z,9.86
2023-02-14T10:28:45.660Z,9.69
2023-02-14T10:29:45.619Z,9.86
2023-02-14T10:30:45.771Z,9.86
2023-02-14T10:31:45.776Z,9.84
2023-02-14T10:32:45.628Z,9.93
2023-02-14T10:33:45.610Z,10.07
2023-02-14T10:34:45.573Z,10.02
2023-02-14T10:35:45.572Z,10.01
2023-02-14T10:36:45.552Z,10.02
2023-02-14T10:37:45.570Z,9.94
2023-02-14T10:38:46.737Z,9.79
2023-02-14T10:39:45.528Z,9.61
2023-02-14T10:40:45.503Z,9.56
2023-02-14T10:41:45.495Z,9.68
2023-02-14T10:42:45.485Z,9.84
2023-02-14T10:43:45.710Z,9.87
2023-02-14T10:44:45.596Z,9.60
2023-02-14T10:45:45.522Z,9.39
2023-02-14T10:46:45.454Z,9.31
2023-02-14T10:47:45.485Z,9.26
2023-02-14T10:48:45.466Z,9.33
2023-02-14T10:49:45.414Z,9.42
2023-02-14T10:50:45.425Z,9.51
2023-02-14T10:51:45.669Z,9.31
2023-02-14T10:52:45.409Z,9.31
2023-02-14T10:53:45.382Z,9.40
2023-02-14T10:54:45.429Z,9.42
2023-02-14T10:55:45.378Z,9.48
2023-02-14T10:56:45.559Z,9.53
2023-02-14T10:57:45.483Z,9.48
2023-02-14T10:58:45.342Z,9.33
2023-02-14T10:59:45.418Z,9.38
2023-02-14T11:00:45.365Z,9.42
2023-02-14T11:01:45.359Z,9.48
2023-02-14T11:02:45.423Z,9.60
2023-02-14T11:03:45.312Z,9.72
2023-02-14T11:04:45.249Z,9.79
2023-02-14T11:05:46.701Z,9.57
2023-02-14T11:07:56.504Z,9.76
2023-02-14T11:08:57.573Z,9.69
2023-02-14T11:09:57.254Z,9.61
2023-02-14T11:10:56.372Z,9.54
2023-02-14T11:11:56.381Z,9.36
2023-02-14T11:12:56.349Z,9.28
2023-02-14T11:13:56.373Z,9.15
2023-02-14T11:14:56.371Z,9.11
2023-02-14T11:15:56.340Z,9.10
2023-02-14T11:16:56.549Z,9.23
2023-02-14T11:17:56.346Z,9.33
2023-02-14T11:18:56.292Z,9.28
2023-02-14T11:19:56.334Z,9.33
2023-02-14T11:20:56.286Z,9.33
2023-02-14T11:21:56.385Z,9.48
2023-02-14T11:22:56.430Z,9.38
2023-02-14T11:23:56.261Z,9.33
2023-02-14T11:24:56.216Z,9.36
2023-02-14T11:25:56.199Z,9.42
2023-02-14T11:26:56.181Z,9.31
2023-02-14T11:27:56.219Z,9.31
2023-02-14T11:28:56.192Z,9.10
2023-02-14T11:29:56.274Z,9.05
2023-02-14T11:30:56.339Z,9.11
2023-02-14T11:31:56.502Z,9.08
2023-02-14T11:32:56.255Z,9.10
2023-02-14T11:33:56.151Z,8.94
2023-02-14T11:34:56.124Z,8.89
2023-02-14T11:35:56.231Z,8.89
2023-02-14T11:36:56.099Z,8.80
2023-02-14T11:37:56.096Z,8.96
2023-02-14T11:38:56.077Z,9.02
2023-02-14T11:39:56.079Z,9.08
2023-02-14T11:40:56.052Z,9.17
2023-02-14T11:41:56.122Z,9.13
2023-02-14T11:43:13.421Z,9.20
2023-02-14T11:43:57.038Z,9.17
2023-02-14T11:44:56.010Z,9.23
2023-02-14T11:45:56.045Z,9.04
2023-02-14T11:46:55.999Z,9.01
2023-02-14T11:47:56.010Z,8.99
2023-02-14T11:48:55.989Z,8.94
2023-02-14T11:49:56.112Z,8.87
2023-02-14T11:50:56.039Z,8.71
2023-02-14T11:51:56.262Z,8.74
2023-02-14T11:52:56.021Z,8.65
2023-02-14T11:53:56.107Z,8.77
2023-02-14T11:54:55.996Z,8.71
2023-02-14T11:55:56.284Z,8.71
2023-02-14T11:56:56.082Z,8.77
2023-02-14T11:57:56.230Z,8.76
2023-02-14T11:58:56.138Z,8.84
2023-02-14T11:59:56.141Z,8.91
2023-02-14T12:00:56.928Z,8.83
2023-02-14T12:01:56.068Z,8.77
2023-02-14T12:02:56.071Z,8.74
2023-02-14T12:03:56.023Z,8.79
2023-02-14T12:04:56.400Z,8.79
2023-02-14T12:05:56.071Z,8.87
2023-02-14T12:06:56.107Z,8.83
2023-02-14T12:07:55.989Z,8.80
2023-02-14T12:08:55.951Z,8.70
2023-02-14T12:09:56.006Z,8.87
2023-02-14T12:10:55.968Z,8.94
2023-02-14T12:11:55.765Z,8.77
2023-02-14T12:12:55.955Z,8.77
2023-02-14T12:13:56.026Z,8.74
2023-02-14T12:14:56.124Z,8.83
2023-02-14T12:15:56.015Z,8.81
2023-02-14T12:16:56.056Z,8.89
2023-02-14T12:17:55.979Z,8.89
2023-02-14T12:18:55.952Z,8.91
2023-02-14T12:19:55.696Z,8.98
2023-02-14T12:20:55.882Z,8.89
2023-02-14T12:21:55.792Z,8.95
2023-02-14T12:22:55.864Z,9.01
2023-02-14T12:23:55.794Z,9.08
2023-02-14T12:24:55.745Z,9.05
2023-02-14T12:25:55.738Z,9.10
2023-02-14T12:26:55.641Z,9.08
2023-02-14T12:27:55.800Z,9.17
2023-02-14T12:28:55.836Z,9.15
2023-02-14T12:29:55.697Z,9.21
2023-02-14T12:30:55.840Z,9.18
2023-02-14T12:31:55.838Z,9.29
2023-02-14T12:32:55.584Z,9.24
2023-02-14T12:33:55.502Z,9.32
2023-02-14T12:34:55.549Z,9.36
2023-02-14T12:35:55.485Z,9.28
2023-02-14T12:36:55.526Z,9.26
2023-02-14T12:38:03.780Z,9.21
2023-02-14T12:38:56.479Z,9.31
2023-02-14T12:39:56.330Z,9.20
2023-02-14T12:40:55.388Z,9.20
2023-02-14T12:41:55.540Z,9.24
2023-02-14T12:42:55.588Z,9.21
2023-02-14T12:43:55.539Z,9.08
2023-02-14T12:44:55.500Z,9.15
2023-02-14T12:45:55.589Z,9.15
2023-02-14T12:46:55.485Z,9.17
2023-02-14T12:47:55.462Z,9.24
2023-02-14T12:48:55.815Z,9.38
2023-02-14T12:49:55.384Z,9.33
2023-02-14T12:50:55.423Z,9.38
2023-02-14T12:51:55.559Z,9.47
2023-02-14T12:52:55.400Z,9.46
2023-02-14T12:53:55.413Z,9.38
2023-02-14T12:54:55.301Z,9.39
2023-02-14T12:55:55.378Z,9.42
2023-02-14T12:56:55.945Z,9.50
2023-02-14T12:57:55.317Z,9.53
2023-02-14T12:58:55.576Z,9.60
2023-02-14T12:59:55.364Z,9.69
2023-02-14T13:00:55.276Z,9.57
2023-02-14T13:01:55.338Z,9.60
2023-02-14T13:02:55.309Z,9.68
2023-02-14T13:03:55.280Z,9.69
2023-02-14T13:04:55.178Z,9.69
2023-02-14T13:05:55.166Z,9.58
2023-02-14T13:06:55.466Z,9.69
2023-02-14T13:07:55.264Z,9.66
2023-02-14T13:08:55.382Z,9.69
2023-02-14T13:09:55.141Z,9.75
2023-02-14T13:10:55.158Z,9.61
2023-02-14T13:11:55.181Z,9.60
2023-02-14T13:12:55.072Z,9.66
2023-02-14T13:13:55.125Z,9.60
2023-02-14T13:14:55.080Z,9.58
2023-02-14T13:15:55.089Z,9.65
2023-02-14T13:16:55.026Z,9.71
2023-02-14T13:17:54.999Z,9.75
2023-02-14T13:18:55.024Z,9.81
2023-02-14T13:19:54.999Z,9.78
2023-02-14T13:20:55.034Z,9.79
2023-02-14T13:21:55.137Z,9.78
2023-02-14T13:22:55.048Z,9.78
2023-02-14T13:23:54.942Z,9.86
2023-02-14T13:24:54.940Z,9.84
2023-02-14T13:25:54.983Z,9.83
2023-02-14T13:26:54.907Z,9.99
2023-02-14T13:27:55.099Z,9.90
2023-02-14T13:28:54.943Z,9.96
2023-02-14T13:29:55.028Z,10.05
2023-02-14T13:30:55.020Z,10.09
2023-02-14T13:31:55.071Z,9.97